createdAt,value
2019-03-17T08:08:46.840Z,30.33
2019-03-17T08:11:14.508Z,33.63
2019-03-17T08:13:42.022Z,36.37
2019-03-17T08:16:09.562Z,26.93
2019-03-17T08:18:37.195Z,26.03
2019-03-17T08:21:04.729Z,25.87
2019-03-17T08:23:32.263Z,29.77
2019-03-17T08:25:59.866Z,26.70
2019-03-17T08:28:27.421Z,23.20
2019-03-17T08:30:54.981Z,23.70
2019-03-17T08:33:22.562Z,31.40
2019-03-17T08:35:50.131Z,21.13
2019-03-17T08:38:22.269Z,19.20
2019-03-17T08:40:47.083Z,16.13
2019-03-17T08:43:14.708Z,19.97
2019-03-17T08:45:42.219Z,18.33
2019-03-17T08:48:09.793Z,18.03
2019-03-17T08:50:37.441Z,16.77
2019-03-17T08:53:05.191Z,15.97
2019-03-17T08:55:32.821Z,15.80
2019-03-17T08:58:00.407Z,15.90
2019-03-17T09:00:27.935Z,15.57
2019-03-17T09:02:55.524Z,12.93
2019-03-17T09:05:23.187Z,15.97
2019-03-17T09:07:50.796Z,13.90
2019-03-17T09:10:19.571Z,18.20
2019-03-17T09:12:47.181Z,12.40
2019-03-17T09:15:14.688Z,13.90
2019-03-17T09:17:42.245Z,14.37
2019-03-17T09:20:10.031Z,16.10
2019-03-17T09:22:37.547Z,12.20
2019-03-17T09:25:05.471Z,11.60
2019-03-17T09:27:32.998Z,13.67
2019-03-17T09:30:00.513Z,13.80
2019-03-17T09:32:28.083Z,12.87
2019-03-17T09:34:55.639Z,13.63
2019-03-17T09:37:23.158Z,14.47
2019-03-17T09:39:50.700Z,13.13
2019-03-17T09:42:18.233Z,11.43
2019-03-17T09:44:45.791Z,9.90
2019-03-17T09:47:13.359Z,12.13
2019-03-17T09:49:40.877Z,14.07
2019-03-17T09:52:08.435Z,13.53
2019-03-17T09:54:35.971Z,11.40
2019-03-17T09:57:03.490Z,12.50
2019-03-17T09:59:31.039Z,12.43
2019-03-17T10:01:58.583Z,10.77
2019-03-17T10:04:26.127Z,10.67
2019-03-17T10:06:53.695Z,9.67
2019-03-17T10:09:21.210Z,10.97
2019-03-17T10:11:48.861Z,10.80
2019-03-17T10:14:16.541Z,10.57
2019-03-17T10:16:44.067Z,12.70
2019-03-17T10:19:11.662Z,9.67
2019-03-17T10:21:39.247Z,15.47
2019-03-17T10:24:06.767Z,12.73
2019-03-17T10:26:34.333Z,11.83
2019-03-17T10:29:01.873Z,11.50
2019-03-17T10:31:29.417Z,10.37
2019-03-17T10:33:57.035Z,7.47
2019-03-17T10:36:24.555Z,11.73
2019-03-17T10:38:52.094Z,9.07
2019-03-17T10:41:19.651Z,10.17
2019-03-17T10:43:47.215Z,10.17
2019-03-17T10:46:14.728Z,8.90
2019-03-17T10:48:42.280Z,7.43
2019-03-17T10:51:09.845Z,12.90
2019-03-17T10:53:37.389Z,9.57
2019-03-17T10:56:04.910Z,9.80
2019-03-17T10:58:32.427Z,10.73
2019-03-17T11:01:00.020Z,9.00
2019-03-17T11:03:27.662Z,9.27
2019-03-17T11:05:55.357Z,9.30
2019-03-17T11:08:23.480Z,11.67
2019-03-17T11:10:51.041Z,16.63
2019-03-17T11:13:18.583Z,11.07
2019-03-17T11:15:46.119Z,10.50
2019-03-17T11:18:13.694Z,11.00
2019-03-17T11:20:46.710Z,7.83
2019-03-17T11:23:14.248Z,9.63
2019-03-17T11:25:41.799Z,10.40
2019-03-17T11:28:09.339Z,8.67
2019-03-17T11:30:36.943Z,10.43
2019-03-17T11:33:04.488Z,7.83
2019-03-17T11:35:32.031Z,9.80
2019-03-17T11:37:59.655Z,9.07
2019-03-17T11:40:27.188Z,11.33
2019-03-17T11:42:54.726Z,13.43
2019-03-17T11:45:22.359Z,10.00
2019-03-17T11:47:50.706Z,6.57
2019-03-17T11:50:18.317Z,8.00
2019-03-17T11:52:45.892Z,8.17
2019-03-17T11:55:13.764Z,7.20
2019-03-17T11:57:41.405Z,13.30
2019-03-17T12:00:10.975Z,16.47
2019-03-17T12:02:38.481Z,9.50
2019-03-17T12:05:06.709Z,7.17
2019-03-17T12:07:34.279Z,7.27
2019-03-17T12:10:01.963Z,5.57
2019-03-17T12:12:29.585Z,7.60
2019-03-17T12:14:57.084Z,8.50
2019-03-17T12:17:24.633Z,7.27
2019-03-17T12:19:52.172Z,5.67
2019-03-17T12:22:19.725Z,6.43
2019-03-17T12:24:47.253Z,7.13
2019-03-17T12:27:14.860Z,8.87
2019-03-17T12:29:42.430Z,6.23
2019-03-17T12:32:09.971Z,7.57
2019-03-17T12:34:37.577Z,7.37
2019-03-17T12:37:05.149Z,14.27
2019-03-17T12:39:32.678Z,6.73
2019-03-17T12:42:00.225Z,9.23
2019-03-17T12:44:27.781Z,11.90
2019-03-17T12:46:55.397Z,7.93
2019-03-17T12:49:22.991Z,9.47
2019-03-17T12:51:50.555Z,4.27
2019-03-17T12:54:18.174Z,9.53
2019-03-17T12:56:45.795Z,4.40
2019-03-17T12:59:13.398Z,4.80
2019-03-17T13:01:41.016Z,5.87
2019-03-17T13:04:08.589Z,8.07
2019-03-17T13:06:36.153Z,4.43
2019-03-17T13:09:06.105Z,8.97
2019-03-17T13:11:33.656Z,6.30
2019-03-17T13:14:01.199Z,6.03
2019-03-17T13:16:28.765Z,5.53
2019-03-17T13:18:56.316Z,6.77
2019-03-17T13:21:23.887Z,8.43
2019-03-17T13:23:51.479Z,6.33
2019-03-17T13:26:19.021Z,4.80
2019-03-17T13:28:46.572Z,5.33
2019-03-17T13:31:14.207Z,4.67
2019-03-17T13:33:41.752Z,4.93
2019-03-17T13:36:09.344Z,4.53
2019-03-17T13:38:36.943Z,4.70
2019-03-17T13:41:04.530Z,8.97
2019-03-17T13:43:32.058Z,6.97
2019-03-17T13:45:59.635Z,20.43
2019-03-17T13:48:27.181Z,5.40
2019-03-17T13:50:54.737Z,5.80
2019-03-17T13:53:23.019Z,9.40
2019-03-17T13:55:51.541Z,6.43
2019-03-17T13:58:19.101Z,7.37
2019-03-17T14:00:46.701Z,8.60
2019-03-17T14:03:14.279Z,4.73
2019-03-17T14:05:41.842Z,8.27
2019-03-17T14:08:09.383Z,6.70
2019-03-17T14:10:41.240Z,5.17
2019-03-17T14:13:06.488Z,9.00
2019-03-17T14:15:34.016Z,5.10
2019-03-17T14:18:01.603Z,4.33
2019-03-17T14:20:29.148Z,6.00
2019-03-17T14:22:56.702Z,4.67
2019-03-17T14:25:24.978Z,5.97
2019-03-17T14:27:52.606Z,5.60
2019-03-17T14:30:20.186Z,5.17
2019-03-17T14:32:47.714Z,4.87
2019-03-17T14:35:15.307Z,5.97
2019-03-17T14:37:42.825Z,4.77
2019-03-17T14:40:12.051Z,10.57
2019-03-17T14:42:39.634Z,7.43
2019-03-17T14:45:08.112Z,7.13
2019-03-17T14:47:35.707Z,4.17
2019-03-17T14:50:03.775Z,6.57
2019-03-17T14:52:31.294Z,4.47
2019-03-17T14:54:58.884Z,6.33
2019-03-17T14:57:26.435Z,16.50
2019-03-17T14:59:54.125Z,6.10
2019-03-17T15:02:21.807Z,6.70
2019-03-17T15:04:49.465Z,6.00
2019-03-17T15:07:16.985Z,8.30
2019-03-17T15:09:44.551Z,5.23
2019-03-17T15:12:12.166Z,7.30
2019-03-17T15:14:39.726Z,6.17
2019-03-17T15:17:07.334Z,5.40
2019-03-17T15:19:34.871Z,6.10
2019-03-17T15:22:02.411Z,5.23
2019-03-17T15:24:29.961Z,4.17
2019-03-17T15:26:57.531Z,5.80
2019-03-17T15:29:25.127Z,7.47
2019-03-17T15:31:52.640Z,5.37
2019-03-17T15:34:20.220Z,5.87
2019-03-17T15:36:48.082Z,6.87
2019-03-17T15:39:15.790Z,5.37
2019-03-17T15:41:43.376Z,5.87
2019-03-17T15:44:10.968Z,5.60
2019-03-17T15:46:38.531Z,7.43
2019-03-17T15:49:06.147Z,5.53
2019-03-17T15:51:33.681Z,10.37
2019-03-17T15:54:01.234Z,16.83
2019-03-17T15:56:28.790Z,26.73
2019-03-17T15:58:56.396Z,17.07
2019-03-17T16:01:24.039Z,11.23
2019-03-17T16:03:51.629Z,7.57
2019-03-17T16:06:19.261Z,8.93
2019-03-17T16:08:47.101Z,10.57
2019-03-17T16:11:14.793Z,7.90
2019-03-17T16:13:42.696Z,6.40
2019-03-17T16:16:10.306Z,8.57
2019-03-17T16:18:37.962Z,9.37
2019-03-17T16:21:05.550Z,8.97
2019-03-17T16:23:33.161Z,8.70
2019-03-17T16:26:00.769Z,12.27
2019-03-17T16:28:28.448Z,11.33
2019-03-17T16:30:56.094Z,11.43
2019-03-17T16:33:23.680Z,10.53
2019-03-17T16:35:51.283Z,14.53
2019-03-17T16:38:18.920Z,24.67
2019-03-17T16:40:46.515Z,13.73
2019-03-17T16:43:15.767Z,9.03
2019-03-17T16:45:43.704Z,33.50
2019-03-17T16:48:11.253Z,24.60
2019-03-17T16:50:38.832Z,16.73
2019-03-17T16:53:06.487Z,23.90
2019-03-17T16:55:34.088Z,24.87
2019-03-17T16:58:01.699Z,27.10
2019-03-17T17:00:29.295Z,45.73
2019-03-17T17:02:56.892Z,56.97
2019-03-17T17:05:24.537Z,51.73
2019-03-17T17:07:52.120Z,53.10
2019-03-17T17:10:19.841Z,52.33
2019-03-17T17:12:47.645Z,58.13
2019-03-17T17:15:19.716Z,55.53
2019-03-17T17:17:47.272Z,72.47
2019-03-17T17:20:16.966Z,68.73
2019-03-17T17:22:44.523Z,72.17
2019-03-17T17:25:12.109Z,70.00
2019-03-17T17:27:39.741Z,91.63
2019-03-17T17:30:09.241Z,85.93
2019-03-17T17:32:36.944Z,106.10
2019-03-17T17:35:04.988Z,74.93
2019-03-17T17:37:32.586Z,68.63
2019-03-17T17:40:00.288Z,85.30
2019-03-17T17:42:27.984Z,115.13
2019-03-17T17:44:55.926Z,138.73
2019-03-17T17:47:23.514Z,184.40
2019-03-17T17:49:51.098Z,168.73
2019-03-17T17:52:18.731Z,173.07
2019-03-17T17:54:46.516Z,184.20
2019-03-17T17:57:14.033Z,186.13
2019-03-17T17:59:41.666Z,174.03
2019-03-17T18:02:09.326Z,185.00
2019-03-17T18:04:37.355Z,167.67
2019-03-17T18:07:04.924Z,180.43
2019-03-17T18:09:32.564Z,173.83
2019-03-17T18:12:00.222Z,185.17
2019-03-17T18:14:27.877Z,167.33
2019-03-17T18:16:55.467Z,173.43
2019-03-17T18:19:23.070Z,169.63
2019-03-17T18:21:50.671Z,157.23
2019-03-17T18:24:18.354Z,139.23
2019-03-17T18:26:45.918Z,152.13
2019-03-17T18:29:13.481Z,152.60
2019-03-17T18:31:41.164Z,154.27
2019-03-17T18:34:09.055Z,150.23
2019-03-17T18:36:38.643Z,133.67
2019-03-17T18:39:06.555Z,146.03
2019-03-17T18:41:34.134Z,152.00
2019-03-17T18:44:01.747Z,169.10
2019-03-17T18:46:29.333Z,155.27
2019-03-17T18:48:56.894Z,156.33
2019-03-17T18:51:25.194Z,151.43
2019-03-17T18:53:54.126Z,136.20
2019-03-17T18:56:21.676Z,135.13
2019-03-17T18:58:49.206Z,127.53
2019-03-17T19:01:16.812Z,135.60
2019-03-17T19:03:44.327Z,134.90
2019-03-17T19:06:11.852Z,139.70
2019-03-17T19:08:39.797Z,131.80
2019-03-17T19:11:07.637Z,120.93
2019-03-17T19:13:35.170Z,128.70
2019-03-17T19:16:02.709Z,126.30
2019-03-17T19:18:30.299Z,116.83
2019-03-17T19:20:57.868Z,115.20
2019-03-17T19:23:25.445Z,113.37
2019-03-17T19:25:52.950Z,117.17
2019-03-17T19:28:20.594Z,131.27
2019-03-17T19:30:48.174Z,149.67
2019-03-17T19:33:15.682Z,143.27
2019-03-17T19:35:43.298Z,132.07
2019-03-17T19:38:10.908Z,144.47
2019-03-17T19:40:38.574Z,136.80
2019-03-17T19:43:06.082Z,148.13
2019-03-17T19:45:33.711Z,152.33
2019-03-17T19:48:01.274Z,143.30
2019-03-17T19:50:28.829Z,139.67
2019-03-17T19:52:56.471Z,111.27
2019-03-17T19:55:24.066Z,110.97
2019-03-17T19:57:51.633Z,108.53
2019-03-17T20:00:19.211Z,128.87
2019-03-17T20:02:47.690Z,116.63
2019-03-17T20:05:15.588Z,119.43
2019-03-17T20:07:43.179Z,329.07
2019-03-17T20:10:12.694Z,293.00
2019-03-17T20:12:40.411Z,210.90
2019-03-17T20:15:08.103Z,283.00
2019-03-17T20:17:35.715Z,248.27
2019-03-17T20:20:04.408Z,237.23
2019-03-17T20:22:31.963Z,251.10
2019-03-17T20:24:59.504Z,298.70
2019-03-17T20:27:27.048Z,277.03
2019-03-17T20:29:54.599Z,295.60
2019-03-17T20:32:22.154Z,269.10
2019-03-17T20:34:49.680Z,224.00
2019-03-17T20:37:17.235Z,209.47
2019-03-17T20:39:44.813Z,219.73
2019-03-17T20:42:12.319Z,214.63
2019-03-17T20:44:39.952Z,190.83
2019-03-17T20:47:07.541Z,189.67
2019-03-17T20:49:35.099Z,178.03
2019-03-17T20:52:02.578Z,193.90
2019-03-17T20:54:30.206Z,232.63
2019-03-17T20:57:00.507Z,214.83
2019-03-17T20:59:27.094Z,217.23
2019-03-17T21:01:54.693Z,247.13
2019-03-17T21:04:22.230Z,246.60
2019-03-17T21:06:49.823Z,241.57
2019-03-17T21:09:17.404Z,212.37
2019-03-17T21:11:45.031Z,200.07
2019-03-17T21:14:13.218Z,163.77
2019-03-17T21:16:40.920Z,129.33
2019-03-17T21:19:08.453Z,109.73
2019-03-17T21:21:36.013Z,137.70
2019-03-17T21:24:03.601Z,135.40
2019-03-17T21:26:31.138Z,155.80
2019-03-17T21:28:58.682Z,171.63
2019-03-17T21:31:26.273Z,200.97
2019-03-17T21:33:53.840Z,154.93
2019-03-17T21:36:21.378Z,160.57
2019-03-17T21:38:48.919Z,148.93
2019-03-17T21:41:16.457Z,127.30
2019-03-17T21:43:44.035Z,134.40
2019-03-17T21:46:11.562Z,112.70
2019-03-17T21:48:39.134Z,103.23
2019-03-17T21:51:06.731Z,124.80
2019-03-17T21:53:34.284Z,121.23
2019-03-17T21:56:01.813Z,137.67
2019-03-17T21:58:29.359Z,121.23
2019-03-17T22:00:56.981Z,128.90
2019-03-17T22:03:24.525Z,137.30
2019-03-17T22:05:52.039Z,113.23
2019-03-17T22:08:19.641Z,118.10
2019-03-17T22:10:47.199Z,118.30
2019-03-17T22:13:14.987Z,133.60
2019-03-17T22:15:42.653Z,126.60
2019-03-17T22:18:10.197Z,99.43
2019-03-17T22:20:37.724Z,86.33
2019-03-17T22:23:05.307Z,69.53
2019-03-17T22:25:32.925Z,55.20
2019-03-17T22:28:08.432Z,35.63
2019-03-17T22:30:29.808Z,39.23
2019-03-17T22:32:57.377Z,33.63
2019-03-17T22:35:24.941Z,34.30
2019-03-17T22:37:52.495Z,35.97
2019-03-17T22:40:20.052Z,33.63
2019-03-17T22:42:47.659Z,26.30
2019-03-17T22:45:15.286Z,24.70
2019-03-17T22:47:42.923Z,16.47
2019-03-17T22:50:10.721Z,17.90
2019-03-17T22:52:38.254Z,16.37
2019-03-17T22:55:06.061Z,14.50
2019-03-17T22:57:33.597Z,13.63
2019-03-17T23:00:01.167Z,12.40
2019-03-17T23:02:29.830Z,11.13
2019-03-17T23:04:57.551Z,9.07
2019-03-17T23:07:25.308Z,11.40
2019-03-17T23:09:53.021Z,8.33
2019-03-17T23:12:20.750Z,10.87
2019-03-17T23:14:48.575Z,4.80
2019-03-17T23:17:16.357Z,8.70
2019-03-17T23:19:44.074Z,7.40
2019-03-17T23:22:11.811Z,6.87
2019-03-17T23:24:39.617Z,5.47
2019-03-17T23:27:07.340Z,7.37
2019-03-17T23:29:35.039Z,6.30
2019-03-17T23:32:02.780Z,3.73
2019-03-17T23:34:30.486Z,3.00
2019-03-17T23:36:58.238Z,3.37
2019-03-17T23:39:25.973Z,7.07
2019-03-17T23:41:53.687Z,4.23
2019-03-17T23:44:21.388Z,2.80
2019-03-17T23:46:49.109Z,5.47
2019-03-17T23:49:16.817Z,4.17
2019-03-17T23:51:44.550Z,3.73
2019-03-17T23:54:12.314Z,5.57
2019-03-17T23:56:40.010Z,7.10
2019-03-17T23:59:07.750Z,6.00
